Fisktrans — LIAB — position and weather

sailwx.info

Track history (hours):
 
Tides and Currents Weather Stations Pressure Air Temp Water Temp Dewpoint Dewpoint Depression Visibility Wind Speed Wind Dir Waves Ship Positions

Fisktrans

Last reported at 2015-Jul-13 18:33 UTC. Time now 2015-Aug-01 16:14 UTC.
Position N 69°41' E 019°01'.
Warning: this ship's position is 18 days out of date.

Length 74 m.

Type: Cargo ship. MMSI: 258034000.

Date/timePositionNaut miles runAvg speedWind from/ knotsBaromVisibWave heightAir tempDewpointWater temp
2015-Jul-13 18:33N 69°41' E 019°01'2 1.7
2015-Jul-13 17:33N 69°39' E 018°58'0 0.0
2015-Jul-13 16:31N 69°39' E 018°58'0 0.0
2015-Jul-13 15:33N 69°39' E 018°58'0 0.0
2015-Jul-13 14:33N 69°39' E 018°58'1 0.5
2015-Jul-13 13:33N 69°39' E 018°58'0 0.0
2015-Jul-13 12:33N 69°39' E 018°58'0 0.0
2015-Jul-13 11:33N 69°39' E 018°58'0 0.0
2015-Jul-13 10:33N 69°39' E 018°58'0 0.0
2015-Jul-13 09:33N 69°39' E 018°58'0 0.0
2015-Jul-13 08:33N 69°39' E 018°58'0 0.0
2015-Jul-13 07:33N 69°39' E 018°58'0 0.0
2015-Jul-13 06:33N 69°39' E 018°58'0 0.0
2015-Jul-13 05:33N 69°39' E 018°58'0 0.0
2015-Jul-13 04:33N 69°39' E 018°58'0 0.0
2015-Jul-13 03:33N 69°39' E 018°58'0 0.0
2015-Jul-13 02:33N 69°39' E 018°58'0 0.0
2015-Jul-13 01:33N 69°39' E 018°58'0 0.0
2015-Jul-13 00:33N 69°39' E 018°58'0 0.0
2015-Jul-12 23:33N 69°39' E 018°58'0 0.0
2015-Jul-12 22:33N 69°39' E 018°58'0 0.0
2015-Jul-12 21:33N 69°39' E 018°58'0 0.0
2015-Jul-12 20:33N 69°39' E 018°58'0 0.0
2015-Jul-12 19:33N 69°39' E 018°58'0 0.0
2015-Jul-12 18:33N 69°39' E 018°58'0 0.0
2015-Jul-12 17:33N 69°39' E 018°58'0 0.0
2015-Jul-12 16:33N 69°39' E 018°58'0 0.0
2015-Jul-12 15:33N 69°39' E 018°58'0 0.0
2015-Jul-12 14:33N 69°39' E 018°58'0 0.0
2015-Jul-12 13:33N 69°39' E 018°58'0 0.0
2015-Jul-12 12:33N 69°39' E 018°58'0 0.0
2015-Jul-12 11:33N 69°39' E 018°58'0 0.0
2015-Jul-12 10:33N 69°39' E 018°58'0 0.0
2015-Jul-12 09:33N 69°39' E 018°58'0 0.0
2015-Jul-12 08:33N 69°39' E 018°58'0 0.0
2015-Jul-12 07:33N 69°39' E 018°58'0 0.0
2015-Jul-12 06:33N 69°39' E 018°58'0 0.0
2015-Jul-12 05:33N 69°39' E 018°58'0 0.0
2015-Jul-12 04:33N 69°39' E 018°58'0 0.0
2015-Jul-12 03:33N 69°39' E 018°58'0 0.0
2015-Jul-12 02:33N 69°39' E 018°58'0 0.0
2015-Jul-12 01:33N 69°39' E 018°58'0 0.0
2015-Jul-12 00:33N 69°39' E 018°58'0 0.0
2015-Jul-11 23:33N 69°39' E 018°58'0 0.0
2015-Jul-11 22:33N 69°39' E 018°58'0 0.0
2015-Jul-11 21:33N 69°39' E 018°58'0 0.0
2015-Jul-11 20:33N 69°39' E 018°58'0 0.0
2015-Jul-11 19:33N 69°39' E 018°58'0 0.0
2015-Jul-11 18:33N 69°39' E 018°58'0 0.0
2015-Jul-11 17:33N 69°39' E 018°58'  
2015-Jul-07 06:31N 69°44' E 019°03'9 9.8
2015-Jul-07 05:33N 69°36' E 018°51'241 5.7
2015-Jul-05 11:29N 66°34' E 011°46'  
Track history (hours):
 
Tides and Currents Weather Stations Pressure Air Temp Water Temp Dewpoint Dewpoint Depression Visibility Wind Speed Wind Dir Waves Ship Positions

Fisktrans

Last reported at 2015-Jul-13 18:33 UTC. Time now 2015-Aug-01 16:14 UTC.
Position N 69°41' E 019°01'.
Warning: this ship's position is 18 days out of date.

Length 74 m.

Type: Cargo ship. MMSI: 258034000.

Date/timePositionNaut miles runAvg speedWind from/ knotsBaromVisibWave heightAir tempDewpointWater temp
2015-Jul-13 18:33N 69°41' E 019°01'2 1.7
2015-Jul-13 17:33N 69°39' E 018°58'0 0.0
2015-Jul-13 16:31N 69°39' E 018°58'0 0.0
2015-Jul-13 15:33N 69°39' E 018°58'0 0.0
2015-Jul-13 14:33N 69°39' E 018°58'1 0.5
2015-Jul-13 13:33N 69°39' E 018°58'0 0.0
2015-Jul-13 12:33N 69°39' E 018°58'0 0.0
2015-Jul-13 11:33N 69°39' E 018°58'0 0.0
2015-Jul-13 10:33N 69°39' E 018°58'0 0.0
2015-Jul-13 09:33N 69°39' E 018°58'0 0.0
2015-Jul-13 08:33N 69°39' E 018°58'0 0.0
2015-Jul-13 07:33N 69°39' E 018°58'0 0.0
2015-Jul-13 06:33N 69°39' E 018°58'0 0.0
2015-Jul-13 05:33N 69°39' E 018°58'0 0.0
2015-Jul-13 04:33N 69°39' E 018°58'0 0.0
2015-Jul-13 03:33N 69°39' E 018°58'0 0.0
2015-Jul-13 02:33N 69°39' E 018°58'0 0.0
2015-Jul-13 01:33N 69°39' E 018°58'0 0.0
2015-Jul-13 00:33N 69°39' E 018°58'0 0.0
2015-Jul-12 23:33N 69°39' E 018°58'0 0.0
2015-Jul-12 22:33N 69°39' E 018°58'0 0.0
2015-Jul-12 21:33N 69°39' E 018°58'0 0.0
2015-Jul-12 20:33N 69°39' E 018°58'0 0.0
2015-Jul-12 19:33N 69°39' E 018°58'0 0.0
2015-Jul-12 18:33N 69°39' E 018°58'0 0.0
2015-Jul-12 17:33N 69°39' E 018°58'0 0.0
2015-Jul-12 16:33N 69°39' E 018°58'0 0.0
2015-Jul-12 15:33N 69°39' E 018°58'0 0.0
2015-Jul-12 14:33N 69°39' E 018°58'0 0.0
2015-Jul-12 13:33N 69°39' E 018°58'0 0.0
2015-Jul-12 12:33N 69°39' E 018°58'0 0.0
2015-Jul-12 11:33N 69°39' E 018°58'0 0.0
2015-Jul-12 10:33N 69°39' E 018°58'0 0.0
2015-Jul-12 09:33N 69°39' E 018°58'0 0.0
2015-Jul-12 08:33N 69°39' E 018°58'0 0.0
2015-Jul-12 07:33N 69°39' E 018°58'0 0.0
2015-Jul-12 06:33N 69°39' E 018°58'0 0.0
2015-Jul-12 05:33N 69°39' E 018°58'0 0.0
2015-Jul-12 04:33N 69°39' E 018°58'0 0.0
2015-Jul-12 03:33N 69°39' E 018°58'0 0.0
2015-Jul-12 02:33N 69°39' E 018°58'0 0.0
2015-Jul-12 01:33N 69°39' E 018°58'0 0.0
2015-Jul-12 00:33N 69°39' E 018°58'0 0.0
2015-Jul-11 23:33N 69°39' E 018°58'0 0.0
2015-Jul-11 22:33N 69°39' E 018°58'0 0.0
2015-Jul-11 21:33N 69°39' E 018°58'0 0.0
2015-Jul-11 20:33N 69°39' E 018°58'0 0.0
2015-Jul-11 19:33N 69°39' E 018°58'0 0.0
2015-Jul-11 18:33N 69°39' E 018°58'0 0.0
2015-Jul-11 17:33N 69°39' E 018°58'  
2015-Jul-07 06:31N 69°44' E 019°03'9 9.8
2015-Jul-07 05:33N 69°36' E 018°51'241 5.7
2015-Jul-05 11:29N 66°34' E 011°46'  

Dump ship's entire track history